sensor_id;sensor_type;location;lat;lon;timestamp;pressure;altitude;pressure_sealevel;temperature;humidity
55801;BME280;41730;51.960;20.158;2023-02-10T00:01:58;101680.78;;;-0.15;64.94
55801;BME280;41730;51.960;20.158;2023-02-10T00:04:29;101681.63;;;-0.13;64.74
55801;BME280;41730;51.960;20.158;2023-02-10T00:07:01;101680.55;;;-0.10;64.70
55801;BME280;41730;51.960;20.158;2023-02-10T00:09:33;101670.84;;;-0.08;64.80
55801;BME280;41730;51.960;20.158;2023-02-10T00:12:05;101661.91;;;-0.10;64.71
55801;BME280;41730;51.960;20.158;2023-02-10T00:14:38;101647.55;;;-0.17;64.54
55801;BME280;41730;51.960;20.158;2023-02-10T00:17:10;101656.92;;;-0.09;64.50
55801;BME280;41730;51.960;20.158;2023-02-10T00:19:42;101658.70;;;-0.02;64.63
55801;BME280;41730;51.960;20.158;2023-02-10T00:22:14;101658.80;;;0.02;64.51
55801;BME280;41730;51.960;20.158;2023-02-10T00:24:46;101652.35;;;-0.04;64.67
55801;BME280;41730;51.960;20.158;2023-02-10T00:27:17;101647.04;;;-0.07;64.97
55801;BME280;41730;51.960;20.158;2023-02-10T00:29:54;101648.34;;;-0.12;65.09
55801;BME280;41730;51.960;20.158;2023-02-10T00:32:25;101650.49;;;-0.07;64.68
55801;BME280;41730;51.960;20.158;2023-02-10T00:34:57;101648.80;;;-0.21;64.83
55801;BME280;41730;51.960;20.158;2023-02-10T00:37:28;101647.48;;;-0.24;65.07
55801;BME280;41730;51.960;20.158;2023-02-10T00:40:00;101646.72;;;-0.20;65.08
55801;BME280;41730;51.960;20.158;2023-02-10T00:42:31;101646.23;;;-0.21;65.09
55801;BME280;41730;51.960;20.158;2023-02-10T00:45:03;101642.23;;;-0.19;64.96
55801;BME280;41730;51.960;20.158;2023-02-10T00:47:35;101639.82;;;-0.19;64.65
55801;BME280;41730;51.960;20.158;2023-02-10T00:50:07;101642.74;;;-0.31;64.97
55801;BME280;41730;51.960;20.158;2023-02-10T00:52:39;101640.38;;;-0.34;64.90
55801;BME280;41730;51.960;20.158;2023-02-10T00:55:10;101640.55;;;-0.34;64.96
55801;BME280;41730;51.960;20.158;2023-02-10T00:57:42;101644.07;;;-0.39;65.31
55801;BME280;41730;51.960;20.158;2023-02-10T01:02:46;101638.55;;;-0.38;65.18
55801;BME280;41730;51.960;20.158;2023-02-10T01:05:18;101637.83;;;-0.35;65.29
55801;BME280;41730;51.960;20.158;2023-02-10T01:07:49;101635.20;;;-0.44;65.27
55801;BME280;41730;51.960;20.158;2023-02-10T01:10:22;101636.92;;;-0.44;65.30
55801;BME280;41730;51.960;20.158;2023-02-10T01:12:54;101632.39;;;-0.41;65.23
55801;BME280;41730;51.960;20.158;2023-02-10T01:15:25;101627.66;;;-0.48;65.30
55801;BME280;41730;51.960;20.158;2023-02-10T01:17:57;101629.94;;;-0.50;65.16
55801;BME280;41730;51.960;20.158;2023-02-10T01:20:29;101632.22;;;-0.53;65.41
55801;BME280;41730;51.960;20.158;2023-02-10T01:23:00;101635.14;;;-0.67;65.52
55801;BME280;41730;51.960;20.158;2023-02-10T01:25:33;101634.21;;;-0.74;65.97
55801;BME280;41730;51.960;20.158;2023-02-10T01:28:06;101630.91;;;-0.71;65.85
55801;BME280;41730;51.960;20.158;2023-02-10T01:30:37;101623.13;;;-0.56;65.29
55801;BME280;41730;51.960;20.158;2023-02-10T01:33:09;101627.48;;;-0.60;65.44
55801;BME280;41730;51.960;20.158;2023-02-10T01:35:40;101615.92;;;-0.58;65.26
55801;BME280;41730;51.960;20.158;2023-02-10T01:38:12;101614.55;;;-0.58;65.15
55801;BME280;41730;51.960;20.158;2023-02-10T01:40:44;101614.73;;;-0.59;65.40
55801;BME280;41730;51.960;20.158;2023-02-10T01:43:18;101614.66;;;-0.67;65.41
55801;BME280;41730;51.960;20.158;2023-02-10T01:45:51;101619.52;;;-0.71;65.61
55801;BME280;41730;51.960;20.158;2023-02-10T01:48:24;101615.41;;;-0.72;65.47
55801;BME280;41730;51.960;20.158;2023-02-10T01:50:59;101619.65;;;-0.80;65.68
55801;BME280;41730;51.960;20.158;2023-02-10T01:53:32;101619.17;;;-0.82;65.69
55801;BME280;41730;51.960;20.158;2023-02-10T01:56:05;101611.31;;;-0.87;65.88
55801;BME280;41730;51.960;20.158;2023-02-10T01:58:36;101614.53;;;-0.97;66.08
55801;BME280;41730;51.960;20.158;2023-02-10T02:01:11;101606.52;;;-0.90;66.10
55801;BME280;41730;51.960;20.158;2023-02-10T02:03:43;101609.30;;;-0.91;65.73
55801;BME280;41730;51.960;20.158;2023-02-10T02:06:14;101608.20;;;-0.99;66.07
55801;BME280;41730;51.960;20.158;2023-02-10T02:08:46;101613.08;;;-1.04;66.13
55801;BME280;41730;51.960;20.158;2023-02-10T02:11:23;101610.58;;;-1.11;66.51
55801;BME280;41730;51.960;20.158;2023-02-10T02:14:10;101615.20;;;-1.11;66.52
55801;BME280;41730;51.960;20.158;2023-02-10T02:16:57;101613.92;;;-1.03;66.30
55801;BME280;41730;51.960;20.158;2023-02-10T02:23:29;101602.20;;;-1.01;66.05
55801;BME280;41730;51.960;20.158;2023-02-10T02:26:26;101598.02;;;-0.98;65.92
55801;BME280;41730;51.960;20.158;2023-02-10T02:29:43;101604.52;;;-0.94;65.85
55801;BME280;41730;51.960;20.158;2023-02-10T02:32:20;101606.70;;;-0.90;65.65
55801;BME280;41730;51.960;20.158;2023-02-10T02:34:55;101598.55;;;-0.98;65.86
55801;BME280;41730;51.960;20.158;2023-02-10T02:37:31;101596.27;;;-1.08;66.13
55801;BME280;41730;51.960;20.158;2023-02-10T02:40:05;101598.70;;;-1.11;66.29
55801;BME280;41730;51.960;20.158;2023-02-10T02:42:37;101598.41;;;-1.15;66.32
55801;BME280;41730;51.960;20.158;2023-02-10T02:45:12;101605.50;;;-1.18;66.55
55801;BME280;41730;51.960;20.158;2023-02-10T02:48:04;101609.45;;;-1.17;66.46
55801;BME280;41730;51.960;20.158;2023-02-10T02:50:40;101606.61;;;-1.11;66.40
55801;BME280;41730;51.960;20.158;2023-02-10T02:53:28;101613.67;;;-1.11;66.33
55801;BME280;41730;51.960;20.158;2023-02-10T02:56:10;101617.09;;;-1.09;66.22
55801;BME280;41730;51.960;20.158;2023-02-10T02:58:51;101622.09;;;-1.10;66.19
55801;BME280;41730;51.960;20.158;2023-02-10T03:01:28;101627.83;;;-1.14;66.31
55801;BME280;41730;51.960;20.158;2023-02-10T03:04:03;101628.08;;;-1.21;66.53
55801;BME280;41730;51.960;20.158;2023-02-10T03:06:35;101629.25;;;-1.18;66.45
55801;BME280;41730;51.960;20.158;2023-02-10T03:09:07;101627.27;;;-1.25;66.65
55801;BME280;41730;51.960;20.158;2023-02-10T03:11:39;101625.19;;;-1.24;66.67
55801;BME280;41730;51.960;20.158;2023-02-10T03:14:11;101623.47;;;-1.10;66.43
55801;BME280;41730;51.960;20.158;2023-02-10T03:16:42;101615.84;;;-1.04;66.29
55801;BME280;41730;51.960;20.158;2023-02-10T03:19:14;101613.49;;;-0.96;66.09
55801;BME280;41730;51.960;20.158;2023-02-10T03:21:45;101608.46;;;-1.07;66.33
55801;BME280;41730;51.960;20.158;2023-02-10T03:24:17;101606.21;;;-1.21;66.69
55801;BME280;41730;51.960;20.158;2023-02-10T03:26:48;101607.66;;;-1.26;66.58
55801;BME280;41730;51.960;20.158;2023-02-10T03:29:20;101603.58;;;-1.32;67.15
55801;BME280;41730;51.960;20.158;2023-02-10T03:31:53;101604.17;;;-1.23;66.72
55801;BME280;41730;51.960;20.158;2023-02-10T03:34:25;101606.60;;;-1.23;66.66
55801;BME280;41730;51.960;20.158;2023-02-10T03:36:57;101606.64;;;-1.28;66.76
55801;BME280;41730;51.960;20.158;2023-02-10T03:39:28;101603.56;;;-1.30;66.88
55801;BME280;41730;51.960;20.158;2023-02-10T03:42:00;101603.34;;;-1.24;66.71
55801;BME280;41730;51.960;20.158;2023-02-10T03:44:32;101601.90;;;-1.35;66.84
55801;BME280;41730;51.960;20.158;2023-02-10T03:47:03;101597.87;;;-1.27;66.76
55801;BME280;41730;51.960;20.158;2023-02-10T03:49:35;101597.44;;;-1.35;67.02
55801;BME280;41730;51.960;20.158;2023-02-10T03:52:07;101597.33;;;-1.41;66.97
55801;BME280;41730;51.960;20.158;2023-02-10T03:54:38;101597.70;;;-1.44;67.16
55801;BME280;41730;51.960;20.158;2023-02-10T03:57:11;101598.63;;;-1.50;67.20
55801;BME280;41730;51.960;20.158;2023-02-10T03:59:43;101602.25;;;-1.52;67.38
55801;BME280;41730;51.960;20.158;2023-02-10T04:02:14;101603.58;;;-1.46;67.16
55801;BME280;41730;51.960;20.158;2023-02-10T04:04:46;101603.65;;;-1.54;67.28
55801;BME280;41730;51.960;20.158;2023-02-10T04:07:17;101604.95;;;-1.64;67.62
55801;BME280;41730;51.960;20.158;2023-02-10T04:09:49;101605.72;;;-1.54;67.63
55801;BME280;41730;51.960;20.158;2023-02-10T04:12:20;101606.08;;;-1.38;67.04
55801;BME280;41730;51.960;20.158;2023-02-10T04:14:52;101611.26;;;-1.40;67.04
55801;BME280;41730;51.960;20.158;2023-02-10T04:17:24;101617.17;;;-1.47;67.23
55801;BME280;41730;51.960;20.158;2023-02-10T04:19:55;101619.67;;;-1.56;67.05
55801;BME280;41730;51.960;20.158;2023-02-10T04:22:27;101619.39;;;-1.63;67.79
55801;BME280;41730;51.960;20.158;2023-02-10T04:24:58;101614.54;;;-1.59;67.69
55801;BME280;41730;51.960;20.158;2023-02-10T04:27:30;101622.29;;;-1.59;67.50
55801;BME280;41730;51.960;20.158;2023-02-10T04:30:02;101620.10;;;-1.64;67.66
55801;BME280;41730;51.960;20.158;2023-02-10T04:32:33;101620.52;;;-1.73;67.83
55801;BME280;41730;51.960;20.158;2023-02-10T04:35:07;101619.67;;;-1.74;67.97
55801;BME280;41730;51.960;20.158;2023-02-10T04:37:43;101614.69;;;-1.73;67.85
55801;BME280;41730;51.960;20.158;2023-02-10T04:40:23;101614.70;;;-1.76;68.07
55801;BME280;41730;51.960;20.158;2023-02-10T04:43:01;101610.58;;;-1.76;68.08
55801;BME280;41730;51.960;20.158;2023-02-10T04:45:36;101610.05;;;-1.75;67.93
55801;BME280;41730;51.960;20.158;2023-02-10T04:48:07;101612.75;;;-1.68;67.76
55801;BME280;41730;51.960;20.158;2023-02-10T04:50:39;101616.02;;;-1.68;67.74
55801;BME280;41730;51.960;20.158;2023-02-10T04:53:11;101615.25;;;-1.61;67.68
55801;BME280;41730;51.960;20.158;2023-02-10T04:55:43;101612.76;;;-1.53;67.70
55801;BME280;41730;51.960;20.158;2023-02-10T04:58:15;101611.74;;;-1.38;67.55
55801;BME280;41730;51.960;20.158;2023-02-10T05:00:46;101606.41;;;-1.22;67.29
55801;BME280;41730;51.960;20.158;2023-02-10T05:03:18;101595.88;;;-1.06;67.08
55801;BME280;41730;51.960;20.158;2023-02-10T05:05:50;101590.55;;;-0.79;66.25
55801;BME280;41730;51.960;20.158;2023-02-10T05:08:23;101580.83;;;-0.75;66.28
55801;BME280;41730;51.960;20.158;2023-02-10T05:10:54;101586.60;;;-0.67;66.19
55801;BME280;41730;51.960;20.158;2023-02-10T05:13:26;101595.05;;;-0.56;65.93
55801;BME280;41730;51.960;20.158;2023-02-10T05:15:58;101592.29;;;-0.56;66.01
55801;BME280;41730;51.960;20.158;2023-02-10T05:18:29;101586.95;;;-0.44;65.87
55801;BME280;41730;51.960;20.158;2023-02-10T05:21:01;101585.03;;;-0.42;65.92
55801;BME280;41730;51.960;20.158;2023-02-10T05:23:34;101586.35;;;-0.39;66.21
55801;BME280;41730;51.960;20.158;2023-02-10T05:26:05;101583.30;;;-0.31;66.85
55801;BME280;41730;51.960;20.158;2023-02-10T05:28:37;101585.96;;;-0.24;66.52
55801;BME280;41730;51.960;20.158;2023-02-10T05:31:09;101586.58;;;-0.20;66.37
55801;BME280;41730;51.960;20.158;2023-02-10T05:33:40;101588.92;;;-0.16;66.17
55801;BME280;41730;51.960;20.158;2023-02-10T05:36:12;101600.06;;;-0.02;65.91
55801;BME280;41730;51.960;20.158;2023-02-10T05:38:44;101608.73;;;-0.05;66.00
55801;BME280;41730;51.960;20.158;2023-02-10T05:41:36;101608.39;;;-0.05;66.50
55801;BME280;41730;51.960;20.158;2023-02-10T05:44:07;101607.89;;;-0.06;66.32
55801;BME280;41730;51.960;20.158;2023-02-10T05:46:39;101610.39;;;-0.11;66.71
55801;BME280;41730;51.960;20.158;2023-02-10T05:49:12;101612.05;;;-0.07;66.46
55801;BME280;41730;51.960;20.158;2023-02-10T05:51:44;101616.05;;;0.01;66.10
55801;BME280;41730;51.960;20.158;2023-02-10T05:54:16;101631.10;;;0.09;65.91
55801;BME280;41730;51.960;20.158;2023-02-10T05:56:48;101621.95;;;0.19;65.95
55801;BME280;41730;51.960;20.158;2023-02-10T05:59:20;101621.40;;;0.21;65.79
55801;BME280;41730;51.960;20.158;2023-02-10T06:01:52;101623.31;;;0.20;65.52
55801;BME280;41730;51.960;20.158;2023-02-10T06:04:24;101618.30;;;0.21;65.65
55801;BME280;41730;51.960;20.158;2023-02-10T06:06:55;101617.98;;;0.20;65.74
55801;BME280;41730;51.960;20.158;2023-02-10T06:09:27;101618.47;;;0.22;65.83
55801;BME280;41730;51.960;20.158;2023-02-10T06:11:59;101624.45;;;0.25;65.88
55801;BME280;41730;51.960;20.158;2023-02-10T06:14:31;101627.83;;;0.30;65.60
55801;BME280;41730;51.960;20.158;2023-02-10T06:17:03;101629.52;;;0.42;65.46
55801;BME280;41730;51.960;20.158;2023-02-10T06:19:39;101630.61;;;0.57;65.15
55801;BME280;41730;51.960;20.158;2023-02-10T06:22:11;101632.54;;;0.55;65.22
55801;BME280;41730;51.960;20.158;2023-02-10T06:24:42;101636.23;;;0.61;65.25
55801;BME280;41730;51.960;20.158;2023-02-10T06:27:14;101633.86;;;0.58;65.20
55801;BME280;41730;51.960;20.158;2023-02-10T06:29:47;101634.73;;;0.58;65.46
55801;BME280;41730;51.960;20.158;2023-02-10T06:32:19;101637.35;;;0.65;65.03
55801;BME280;41730;51.960;20.158;2023-02-10T06:34:51;101642.89;;;0.64;65.33
55801;BME280;41730;51.960;20.158;2023-02-10T06:37:23;101644.04;;;0.68;65.36
55801;BME280;41730;51.960;20.158;2023-02-10T06:39:55;101641.01;;;0.83;65.23
55801;BME280;41730;51.960;20.158;2023-02-10T06:42:26;101646.85;;;0.84;65.03
55801;BME280;41730;51.960;20.158;2023-02-10T06:44:58;101646.19;;;0.73;65.09
55801;BME280;41730;51.960;20.158;2023-02-10T06:47:30;101638.98;;;0.71;65.33
55801;BME280;41730;51.960;20.158;2023-02-10T06:50:02;101633.26;;;0.81;65.21
55801;BME280;41730;51.960;20.158;2023-02-10T06:52:34;101636.48;;;0.75;65.41
55801;BME280;41730;51.960;20.158;2023-02-10T06:55:08;101636.59;;;0.70;65.58
55801;BME280;41730;51.960;20.158;2023-02-10T06:57:40;101636.42;;;0.69;65.59
55801;BME280;41730;51.960;20.158;2023-02-10T07:00:16;101636.43;;;0.78;65.79
55801;BME280;41730;51.960;20.158;2023-02-10T07:02:47;101639.47;;;0.81;65.54
55801;BME280;41730;51.960;20.158;2023-02-10T07:05:20;101648.86;;;0.86;65.64
55801;BME280;41730;51.960;20.158;2023-02-10T07:07:51;101648.20;;;0.85;65.72
55801;BME280;41730;51.960;20.158;2023-02-10T07:10:23;101646.59;;;0.79;66.36
55801;BME280;41730;51.960;20.158;2023-02-10T07:12:55;101647.42;;;0.81;66.69
55801;BME280;41730;51.960;20.158;2023-02-10T07:15:27;101648.42;;;0.92;66.93
55801;BME280;41730;51.960;20.158;2023-02-10T07:17:58;101657.25;;;0.99;67.01
55801;BME280;41730;51.960;20.158;2023-02-10T07:20:30;101660.33;;;1.10;66.93
55801;BME280;41730;51.960;20.158;2023-02-10T07:23:02;101665.27;;;1.13;66.60
55801;BME280;41730;51.960;20.158;2023-02-10T07:25:34;101664.94;;;1.12;66.79
55801;BME280;41730;51.960;20.158;2023-02-10T07:28:05;101662.88;;;1.20;66.35
55801;BME280;41730;51.960;20.158;2023-02-10T07:30:38;101666.97;;;1.22;66.41
55801;BME280;41730;51.960;20.158;2023-02-10T07:33:10;101672.17;;;1.30;66.27
55801;BME280;41730;51.960;20.158;2023-02-10T07:35:42;101670.61;;;1.30;66.19
55801;BME280;41730;51.960;20.158;2023-02-10T07:38:13;101666.51;;;1.28;66.13
55801;BME280;41730;51.960;20.158;2023-02-10T07:40:45;101663.17;;;1.39;66.28
55801;BME280;41730;51.960;20.158;2023-02-10T07:43:17;101666.82;;;1.46;65.90
55801;BME280;41730;51.960;20.158;2023-02-10T07:45:49;101669.41;;;1.55;65.75
55801;BME280;41730;51.960;20.158;2023-02-10T07:48:21;101665.92;;;1.56;65.85
55801;BME280;41730;51.960;20.158;2023-02-10T07:50:53;101664.61;;;1.61;65.80
55801;BME280;41730;51.960;20.158;2023-02-10T07:53:25;101660.91;;;1.56;66.21
55801;BME280;41730;51.960;20.158;2023-02-10T07:55:59;101660.91;;;1.56;66.08
55801;BME280;41730;51.960;20.158;2023-02-10T07:58:31;101665.98;;;1.61;66.02
55801;BME280;41730;51.960;20.158;2023-02-10T08:01:07;101664.92;;;1.62;66.09
55801;BME280;41730;51.960;20.158;2023-02-10T08:03:39;101663.75;;;1.60;66.21
55801;BME280;41730;51.960;20.158;2023-02-10T08:06:11;101660.30;;;1.59;66.50
55801;BME280;41730;51.960;20.158;2023-02-10T08:08:42;101662.98;;;1.64;66.41
55801;BME280;41730;51.960;20.158;2023-02-10T08:11:14;101664.53;;;1.64;66.35
55801;BME280;41730;51.960;20.158;2023-02-10T08:13:47;101656.59;;;1.71;66.64
55801;BME280;41730;51.960;20.158;2023-02-10T08:16:18;101653.88;;;1.92;66.53
55801;BME280;41730;51.960;20.158;2023-02-10T08:18:50;101647.70;;;2.04;66.18
55801;BME280;41730;51.960;20.158;2023-02-10T08:21:22;101647.85;;;2.12;66.13
55801;BME280;41730;51.960;20.158;2023-02-10T08:23:55;101642.64;;;2.12;66.30
55801;BME280;41730;51.960;20.158;2023-02-10T08:26:27;101642.58;;;2.22;66.56
55801;BME280;41730;51.960;20.158;2023-02-10T08:28:59;101644.22;;;2.39;66.49
55801;BME280;41730;51.960;20.158;2023-02-10T08:31:31;101647.09;;;2.48;66.25
55801;BME280;41730;51.960;20.158;2023-02-10T08:34:03;101651.77;;;2.49;66.30
55801;BME280;41730;51.960;20.158;2023-02-10T08:36:35;101657.35;;;2.60;66.34
55801;BME280;41730;51.960;20.158;2023-02-10T08:39:06;101659.95;;;2.67;66.11
55801;BME280;41730;51.960;20.158;2023-02-10T08:41:38;101663.21;;;2.74;65.98
55801;BME280;41730;51.960;20.158;2023-02-10T08:44:12;101655.33;;;2.85;65.78
55801;BME280;41730;51.960;20.158;2023-02-10T08:46:44;101658.35;;;2.94;65.57
55801;BME280;41730;51.960;20.158;2023-02-10T08:49:16;101659.34;;;2.95;65.10
55801;BME280;41730;51.960;20.158;2023-02-10T08:51:48;101667.23;;;2.98;65.26
55801;BME280;41730;51.960;20.158;2023-02-10T08:54:20;101663.11;;;3.03;65.16
55801;BME280;41730;51.960;20.158;2023-02-10T08:56:55;101660.67;;;2.97;65.26
55801;BME280;41730;51.960;20.158;2023-02-10T08:59:27;101663.65;;;2.96;65.31
55801;BME280;41730;51.960;20.158;2023-02-10T09:01:59;101664.81;;;2.92;65.34
55801;BME280;41730;51.960;20.158;2023-02-10T09:04:31;101666.50;;;3.00;65.31
55801;BME280;41730;51.960;20.158;2023-02-10T09:07:03;101671.37;;;2.99;65.35
55801;BME280;41730;51.960;20.158;2023-02-10T09:09:39;101674.08;;;3.01;65.50
55801;BME280;41730;51.960;20.158;2023-02-10T09:12:12;101675.11;;;3.02;65.49
55801;BME280;41730;51.960;20.158;2023-02-10T09:14:44;101677.59;;;3.06;65.40
55801;BME280;41730;51.960;20.158;2023-02-10T09:17:16;101684.33;;;3.07;65.48
55801;BME280;41730;51.960;20.158;2023-02-10T09:19:48;101688.02;;;3.17;65.22
55801;BME280;41730;51.960;20.158;2023-02-10T09:22:19;101691.91;;;3.08;65.43
55801;BME280;41730;51.960;20.158;2023-02-10T09:24:51;101691.45;;;2.99;65.60
55801;BME280;41730;51.960;20.158;2023-02-10T09:27:24;101701.12;;;3.01;65.77
55801;BME280;41730;51.960;20.158;2023-02-10T09:29:55;101706.55;;;3.05;65.70
55801;BME280;41730;51.960;20.158;2023-02-10T09:32:27;101706.13;;;3.02;65.85
55801;BME280;41730;51.960;20.158;2023-02-10T09:34:59;101709.86;;;3.04;65.66
55801;BME280;41730;51.960;20.158;2023-02-10T09:37:31;101708.05;;;3.07;65.73
55801;BME280;41730;51.960;20.158;2023-02-10T09:40:03;101701.98;;;3.14;65.37
55801;BME280;41730;51.960;20.158;2023-02-10T09:42:44;101697.50;;;3.13;65.44
55801;BME280;41730;51.960;20.158;2023-02-10T09:45:19;101697.06;;;3.10;65.61
55801;BME280;41730;51.960;20.158;2023-02-10T09:47:55;101701.03;;;3.16;65.62
55801;BME280;41730;51.960;20.158;2023-02-10T09:50:43;101700.83;;;3.24;65.51
55801;BME280;41730;51.960;20.158;2023-02-10T09:53:19;101706.46;;;3.27;65.48
55801;BME280;41730;51.960;20.158;2023-02-10T09:55:55;101708.86;;;3.22;65.85
55801;BME280;41730;51.960;20.158;2023-02-10T09:58:33;101708.24;;;3.19;66.07
55801;BME280;41730;51.960;20.158;2023-02-10T10:01:15;101702.78;;;3.34;66.05
55801;BME280;41730;51.960;20.158;2023-02-10T10:03:51;101698.69;;;3.50;65.69
55801;BME280;41730;51.960;20.158;2023-02-10T10:06:29;101699.83;;;3.53;65.72
55801;BME280;41730;51.960;20.158;2023-02-10T10:09:15;101703.66;;;3.57;65.69
55801;BME280;41730;51.960;20.158;2023-02-10T10:11:50;101709.97;;;3.62;65.60
55801;BME280;41730;51.960;20.158;2023-02-10T10:14:25;101711.67;;;3.62;65.74
55801;BME280;41730;51.960;20.158;2023-02-10T10:20:01;101706.63;;;3.80;65.71
55801;BME280;41730;51.960;20.158;2023-02-10T10:22:45;101701.48;;;3.84;65.39
55801;BME280;41730;51.960;20.158;2023-02-10T10:25:40;101709.25;;;3.85;65.19
55801;BME280;41730;51.960;20.158;2023-02-10T10:28:22;101714.33;;;3.79;65.64
55801;BME280;41730;51.960;20.158;2023-02-10T10:31:03;101701.04;;;3.82;65.60
55801;BME280;41730;51.960;20.158;2023-02-10T10:33:42;101699.80;;;3.82;65.38
55801;BME280;41730;51.960;20.158;2023-02-10T10:36:18;101708.02;;;3.80;65.52
55801;BME280;41730;51.960;20.158;2023-02-10T10:38:54;101713.56;;;3.80;65.74
55801;BME280;41730;51.960;20.158;2023-02-10T10:41:32;101710.03;;;3.82;65.67
55801;BME280;41730;51.960;20.158;2023-02-10T10:44:10;101701.90;;;3.82;65.82
55801;BME280;41730;51.960;20.158;2023-02-10T10:46:47;101700.47;;;3.72;66.01
55801;BME280;41730;51.960;20.158;2023-02-10T10:49:20;101703.20;;;3.68;66.14
55801;BME280;41730;51.960;20.158;2023-02-10T10:51:53;101702.02;;;3.61;66.32
55801;BME280;41730;51.960;20.158;2023-02-10T10:54:26;101711.48;;;3.63;66.25
55801;BME280;41730;51.960;20.158;2023-02-10T10:57:01;101712.73;;;3.68;66.11
55801;BME280;41730;51.960;20.158;2023-02-10T10:59:36;101713.52;;;3.65;66.19
55801;BME280;41730;51.960;20.158;2023-02-10T11:02:17;101721.41;;;3.74;66.24
55801;BME280;41730;51.960;20.158;2023-02-10T11:05:03;101715.08;;;3.82;65.72
55801;BME280;41730;51.960;20.158;2023-02-10T11:07:38;101721.52;;;3.70;66.31
55801;BME280;41730;51.960;20.158;2023-02-10T11:10:22;101722.45;;;3.79;66.22
55801;BME280;41730;51.960;20.158;2023-02-10T11:12:55;101721.44;;;3.73;66.36
55801;BME280;41730;51.960;20.158;2023-02-10T11:15:35;101715.83;;;3.74;66.59
55801;BME280;41730;51.960;20.158;2023-02-10T11:18:17;101717.06;;;3.80;66.36
55801;BME280;41730;51.960;20.158;2023-02-10T11:20:58;101715.94;;;3.77;66.55
55801;BME280;41730;51.960;20.158;2023-02-10T11:23:31;101714.94;;;3.75;66.46
55801;BME280;41730;51.960;20.158;2023-02-10T11:26:06;101709.59;;;3.74;66.70
55801;BME280;41730;51.960;20.158;2023-02-10T11:28:38;101709.21;;;3.81;66.56
55801;BME280;41730;51.960;20.158;2023-02-10T11:31:25;101717.73;;;3.80;66.49
55801;BME280;41730;51.960;20.158;2023-02-10T11:34:02;101725.80;;;3.89;66.47
55801;BME280;41730;51.960;20.158;2023-02-10T11:36:38;101725.30;;;3.94;66.30
55801;BME280;41730;51.960;20.158;2023-02-10T11:39:22;101720.77;;;3.83;66.52
55801;BME280;41730;51.960;20.158;2023-02-10T11:41:55;101733.83;;;3.82;66.63
55801;BME280;41730;51.960;20.158;2023-02-10T11:44:30;101733.80;;;3.76;66.74
55801;BME280;41730;51.960;20.158;2023-02-10T11:47:10;101725.63;;;3.72;66.88
55801;BME280;41730;51.960;20.158;2023-02-10T11:49:47;101724.95;;;3.77;67.00
55801;BME280;41730;51.960;20.158;2023-02-10T11:52:21;101720.80;;;3.76;67.03
55801;BME280;41730;51.960;20.158;2023-02-10T11:54:54;101720.09;;;3.83;66.93
55801;BME280;41730;51.960;20.158;2023-02-10T11:57:35;101722.05;;;3.81;67.13
55801;BME280;41730;51.960;20.158;2023-02-10T12:06:07;101714.58;;;3.70;67.50
55801;BME280;41730;51.960;20.158;2023-02-10T12:08:53;101721.29;;;3.77;67.31
55801;BME280;41730;51.960;20.158;2023-02-10T12:11:37;101721.80;;;3.72;67.51
55801;BME280;41730;51.960;20.158;2023-02-10T12:14:36;101727.61;;;3.75;67.40
55801;BME280;41730;51.960;20.158;2023-02-10T12:17:25;101725.20;;;3.91;66.94
55801;BME280;41730;51.960;20.158;2023-02-10T12:20:15;101734.88;;;3.93;66.84
55801;BME280;41730;51.960;20.158;2023-02-10T12:23:11;101739.84;;;3.95;66.87
55801;BME280;41730;51.960;20.158;2023-02-10T12:25:54;101735.95;;;4.03;66.61
55801;BME280;41730;51.960;20.158;2023-02-10T12:28:40;101734.05;;;4.14;66.42
55801;BME280;41730;51.960;20.158;2023-02-10T12:31:29;101733.20;;;4.13;66.25
55801;BME280;41730;51.960;20.158;2023-02-10T12:34:14;101730.91;;;4.14;66.45
55801;BME280;41730;51.960;20.158;2023-02-10T12:36:57;101744.65;;;4.13;66.41
55801;BME280;41730;51.960;20.158;2023-02-10T12:39:43;101743.17;;;4.11;66.52
55801;BME280;41730;51.960;20.158;2023-02-10T12:42:29;101736.13;;;4.15;66.53
55801;BME280;41730;51.960;20.158;2023-02-10T12:45:16;101731.69;;;4.39;65.92
55801;BME280;41730;51.960;20.158;2023-02-10T12:47:54;101734.65;;;4.44;65.63
55801;BME280;41730;51.960;20.158;2023-02-10T12:50:43;101738.74;;;4.36;65.83
55801;BME280;41730;51.960;20.158;2023-02-10T12:53:21;101732.63;;;4.32;66.16
55801;BME280;41730;51.960;20.158;2023-02-10T12:55:59;101728.04;;;4.28;66.32
55801;BME280;41730;51.960;20.158;2023-02-10T12:58:34;101733.16;;;4.31;66.19
55801;BME280;41730;51.960;20.158;2023-02-10T13:01:16;101737.72;;;4.35;66.10
55801;BME280;41730;51.960;20.158;2023-02-10T13:03:52;101738.52;;;4.32;65.97
55801;BME280;41730;51.960;20.158;2023-02-10T13:06:30;101740.46;;;4.30;66.08
55801;BME280;41730;51.960;20.158;2023-02-10T13:09:09;101742.18;;;4.25;66.00
55801;BME280;41730;51.960;20.158;2023-02-10T13:11:47;101745.71;;;4.24;66.34
55801;BME280;41730;51.960;20.158;2023-02-10T13:14:26;101747.64;;;4.29;66.16
55801;BME280;41730;51.960;20.158;2023-02-10T13:17:01;101742.20;;;4.31;66.26
55801;BME280;41730;51.960;20.158;2023-02-10T13:19:39;101740.43;;;4.32;66.08
55801;BME280;41730;51.960;20.158;2023-02-10T13:22:20;101746.13;;;4.27;66.02
55801;BME280;41730;51.960;20.158;2023-02-10T13:25:06;101750.92;;;4.18;66.20
55801;BME280;41730;51.960;20.158;2023-02-10T13:27:50;101741.14;;;4.15;66.28
55801;BME280;41730;51.960;20.158;2023-02-10T13:30:47;101743.88;;;4.16;66.36
55801;BME280;41730;51.960;20.158;2023-02-10T13:33:25;101751.36;;;4.16;66.27
55801;BME280;41730;51.960;20.158;2023-02-10T13:36:00;101749.51;;;4.08;66.21
55801;BME280;41730;51.960;20.158;2023-02-10T13:38:34;101759.59;;;3.90;66.65
55801;BME280;41730;51.960;20.158;2023-02-10T13:41:16;101756.98;;;3.85;66.94